sensor_id;sensor_type;location;lat;lon;timestamp;P1;durP1;ratioP1;P2;durP2;ratioP2
22967;SDS011;11650;48.106;-1.696;2023-06-10T00:01:50;14.50;;;11.20;;
22967;SDS011;11650;48.106;-1.696;2023-06-10T00:04:16;15.27;;;11.57;;
22967;SDS011;11650;48.106;-1.696;2023-06-10T00:06:43;19.87;;;12.27;;
22967;SDS011;11650;48.106;-1.696;2023-06-10T00:09:09;15.23;;;12.20;;
22967;SDS011;11650;48.106;-1.696;2023-06-10T00:11:35;14.80;;;12.40;;
22967;SDS011;11650;48.106;-1.696;2023-06-10T00:14:02;15.53;;;12.40;;
22967;SDS011;11650;48.106;-1.696;2023-06-10T00:16:28;16.17;;;13.10;;
22967;SDS011;11650;48.106;-1.696;2023-06-10T00:18:54;16.93;;;12.30;;
22967;SDS011;11650;48.106;-1.696;2023-06-10T00:21:25;14.80;;;12.30;;
22967;SDS011;11650;48.106;-1.696;2023-06-10T00:23:55;16.47;;;12.57;;
22967;SDS011;11650;48.106;-1.696;2023-06-10T00:26:23;16.50;;;12.93;;
22967;SDS011;11650;48.106;-1.696;2023-06-10T00:28:49;17.27;;;13.30;;
22967;SDS011;11650;48.106;-1.696;2023-06-10T00:31:15;20.23;;;13.77;;
22967;SDS011;11650;48.106;-1.696;2023-06-10T00:33:42;18.67;;;13.67;;
22967;SDS011;11650;48.106;-1.696;2023-06-10T00:36:08;19.97;;;14.40;;
22967;SDS011;11650;48.106;-1.696;2023-06-10T00:38:34;22.57;;;14.37;;
22967;SDS011;11650;48.106;-1.696;2023-06-10T00:41:00;15.97;;;13.67;;
22967;SDS011;11650;48.106;-1.696;2023-06-10T00:43:26;16.93;;;13.87;;
22967;SDS011;11650;48.106;-1.696;2023-06-10T00:45:52;19.10;;;14.23;;
22967;SDS011;11650;48.106;-1.696;2023-06-10T00:48:18;19.47;;;14.43;;
22967;SDS011;11650;48.106;-1.696;2023-06-10T00:50:44;18.87;;;14.60;;
22967;SDS011;11650;48.106;-1.696;2023-06-10T00:53:11;16.83;;;13.73;;
22967;SDS011;11650;48.106;-1.696;2023-06-10T00:55:37;18.17;;;14.40;;
22967;SDS011;11650;48.106;-1.696;2023-06-10T00:58:03;18.57;;;14.33;;
22967;SDS011;11650;48.106;-1.696;2023-06-10T01:00:29;18.90;;;15.10;;
22967;SDS011;11650;48.106;-1.696;2023-06-10T01:02:55;19.17;;;15.00;;
22967;SDS011;11650;48.106;-1.696;2023-06-10T01:05:21;17.63;;;13.20;;
22967;SDS011;11650;48.106;-1.696;2023-06-10T01:13:07;20.40;;;14.07;;
22967;SDS011;11650;48.106;-1.696;2023-06-10T01:15:36;17.90;;;14.47;;
22967;SDS011;11650;48.106;-1.696;2023-06-10T01:18:07;20.23;;;14.40;;
22967;SDS011;11650;48.106;-1.696;2023-06-10T01:20:34;18.93;;;13.93;;
22967;SDS011;11650;48.106;-1.696;2023-06-10T01:23:05;20.80;;;14.30;;
22967;SDS011;11650;48.106;-1.696;2023-06-10T01:25:31;18.73;;;14.73;;
22967;SDS011;11650;48.106;-1.696;2023-06-10T01:30:53;17.93;;;14.40;;
22967;SDS011;11650;48.106;-1.696;2023-06-10T01:33:29;17.30;;;13.07;;
22967;SDS011;11650;48.106;-1.696;2023-06-10T01:35:59;17.63;;;13.67;;
22967;SDS011;11650;48.106;-1.696;2023-06-10T01:38:26;16.07;;;13.13;;
22967;SDS011;11650;48.106;-1.696;2023-06-10T01:40:55;16.93;;;13.20;;
22967;SDS011;11650;48.106;-1.696;2023-06-10T01:43:22;15.53;;;13.80;;
22967;SDS011;11650;48.106;-1.696;2023-06-10T01:45:48;16.40;;;13.53;;
22967;SDS011;11650;48.106;-1.696;2023-06-10T01:48:14;17.93;;;13.27;;
22967;SDS011;11650;48.106;-1.696;2023-06-10T01:50:39;15.73;;;13.03;;
22967;SDS011;11650;48.106;-1.696;2023-06-10T01:53:05;17.33;;;13.37;;
22967;SDS011;11650;48.106;-1.696;2023-06-10T01:55:31;17.03;;;13.00;;
22967;SDS011;11650;48.106;-1.696;2023-06-10T01:57:56;18.37;;;13.73;;
22967;SDS011;11650;48.106;-1.696;2023-06-10T02:00:22;20.97;;;14.50;;
22967;SDS011;11650;48.106;-1.696;2023-06-10T02:02:48;18.10;;;14.50;;
22967;SDS011;11650;48.106;-1.696;2023-06-10T02:05:13;19.73;;;13.63;;
22967;SDS011;11650;48.106;-1.696;2023-06-10T02:07:39;18.97;;;14.73;;
22967;SDS011;11650;48.106;-1.696;2023-06-10T02:10:05;18.07;;;14.47;;
22967;SDS011;11650;48.106;-1.696;2023-06-10T02:12:32;19.10;;;15.27;;
22967;SDS011;11650;48.106;-1.696;2023-06-10T02:14:57;22.63;;;14.87;;
22967;SDS011;11650;48.106;-1.696;2023-06-10T02:17:23;19.50;;;14.57;;
22967;SDS011;11650;48.106;-1.696;2023-06-10T02:19:49;19.87;;;15.70;;
22967;SDS011;11650;48.106;-1.696;2023-06-10T02:22:21;18.87;;;14.90;;
22967;SDS011;11650;48.106;-1.696;2023-06-10T02:24:48;18.20;;;14.60;;
22967;SDS011;11650;48.106;-1.696;2023-06-10T02:27:14;19.03;;;15.00;;
22967;SDS011;11650;48.106;-1.696;2023-06-10T02:29:40;20.27;;;15.37;;
22967;SDS011;11650;48.106;-1.696;2023-06-10T02:32:07;18.67;;;15.33;;
22967;SDS011;11650;48.106;-1.696;2023-06-10T02:34:33;20.80;;;15.80;;
22967;SDS011;11650;48.106;-1.696;2023-06-10T02:36:59;21.03;;;16.50;;
22967;SDS011;11650;48.106;-1.696;2023-06-10T02:39:25;19.40;;;15.43;;
22967;SDS011;11650;48.106;-1.696;2023-06-10T02:41:51;19.40;;;15.47;;
22967;SDS011;11650;48.106;-1.696;2023-06-10T02:44:20;23.17;;;16.17;;
22967;SDS011;11650;48.106;-1.696;2023-06-10T02:46:46;20.73;;;15.37;;
22967;SDS011;11650;48.106;-1.696;2023-06-10T02:49:12;18.77;;;15.60;;
22967;SDS011;11650;48.106;-1.696;2023-06-10T02:51:38;22.30;;;16.23;;
22967;SDS011;11650;48.106;-1.696;2023-06-10T02:54:04;20.80;;;16.33;;
22967;SDS011;11650;48.106;-1.696;2023-06-10T02:56:30;21.93;;;16.23;;
22967;SDS011;11650;48.106;-1.696;2023-06-10T02:58:56;21.87;;;15.50;;
22967;SDS011;11650;48.106;-1.696;2023-06-10T03:01:22;19.50;;;16.00;;
22967;SDS011;11650;48.106;-1.696;2023-06-10T03:03:48;24.37;;;17.30;;
22967;SDS011;11650;48.106;-1.696;2023-06-10T03:06:15;23.30;;;17.13;;
22967;SDS011;11650;48.106;-1.696;2023-06-10T03:08:41;23.90;;;18.73;;
22967;SDS011;11650;48.106;-1.696;2023-06-10T03:11:07;26.80;;;17.87;;
22967;SDS011;11650;48.106;-1.696;2023-06-10T03:13:33;23.80;;;16.97;;
22967;SDS011;11650;48.106;-1.696;2023-06-10T03:15:59;21.83;;;18.53;;
22967;SDS011;11650;48.106;-1.696;2023-06-10T03:18:25;24.60;;;18.03;;
22967;SDS011;11650;48.106;-1.696;2023-06-10T03:20:51;22.37;;;16.83;;
22967;SDS011;11650;48.106;-1.696;2023-06-10T03:23:17;24.23;;;18.23;;
22967;SDS011;11650;48.106;-1.696;2023-06-10T03:25:43;22.63;;;17.33;;
22967;SDS011;11650;48.106;-1.696;2023-06-10T03:28:09;22.70;;;17.80;;
22967;SDS011;11650;48.106;-1.696;2023-06-10T03:30:35;22.83;;;18.70;;
22967;SDS011;11650;48.106;-1.696;2023-06-10T03:33:01;26.20;;;19.43;;
22967;SDS011;11650;48.106;-1.696;2023-06-10T03:35:26;25.60;;;18.67;;
22967;SDS011;11650;48.106;-1.696;2023-06-10T03:37:52;23.70;;;18.13;;
22967;SDS011;11650;48.106;-1.696;2023-06-10T03:40:17;26.00;;;19.20;;
22967;SDS011;11650;48.106;-1.696;2023-06-10T03:42:43;25.67;;;19.17;;
22967;SDS011;11650;48.106;-1.696;2023-06-10T03:45:09;25.83;;;19.67;;
22967;SDS011;11650;48.106;-1.696;2023-06-10T03:47:35;26.30;;;20.20;;
22967;SDS011;11650;48.106;-1.696;2023-06-10T03:50:03;22.23;;;18.60;;
22967;SDS011;11650;48.106;-1.696;2023-06-10T03:52:29;24.53;;;18.63;;
22967;SDS011;11650;48.106;-1.696;2023-06-10T03:54:55;28.73;;;20.27;;
22967;SDS011;11650;48.106;-1.696;2023-06-10T03:57:21;24.37;;;18.37;;
22967;SDS011;11650;48.106;-1.696;2023-06-10T03:59:46;27.50;;;19.80;;
22967;SDS011;11650;48.106;-1.696;2023-06-10T04:02:12;29.27;;;20.73;;
22967;SDS011;11650;48.106;-1.696;2023-06-10T04:04:38;29.10;;;20.10;;
22967;SDS011;11650;48.106;-1.696;2023-06-10T04:07:04;30.53;;;20.63;;
22967;SDS011;11650;48.106;-1.696;2023-06-10T04:09:30;29.00;;;20.13;;
22967;SDS011;11650;48.106;-1.696;2023-06-10T04:11:55;28.93;;;21.27;;
22967;SDS011;11650;48.106;-1.696;2023-06-10T04:14:21;32.23;;;21.77;;
22967;SDS011;11650;48.106;-1.696;2023-06-10T04:16:47;31.20;;;21.20;;
22967;SDS011;11650;48.106;-1.696;2023-06-10T04:19:12;29.57;;;21.07;;
22967;SDS011;11650;48.106;-1.696;2023-06-10T04:21:38;30.47;;;21.23;;
22967;SDS011;11650;48.106;-1.696;2023-06-10T04:24:04;29.60;;;20.83;;
22967;SDS011;11650;48.106;-1.696;2023-06-10T04:26:29;34.87;;;22.00;;
22967;SDS011;11650;48.106;-1.696;2023-06-10T04:28:55;33.30;;;21.67;;
22967;SDS011;11650;48.106;-1.696;2023-06-10T04:31:21;31.03;;;21.00;;
22967;SDS011;11650;48.106;-1.696;2023-06-10T04:33:46;34.63;;;22.03;;
22967;SDS011;11650;48.106;-1.696;2023-06-10T04:36:12;36.97;;;23.80;;
22967;SDS011;11650;48.106;-1.696;2023-06-10T04:38:39;40.80;;;22.83;;
22967;SDS011;11650;48.106;-1.696;2023-06-10T04:41:05;32.40;;;23.37;;
22967;SDS011;11650;48.106;-1.696;2023-06-10T04:43:31;40.30;;;23.03;;
22967;SDS011;11650;48.106;-1.696;2023-06-10T04:45:57;36.73;;;23.80;;
22967;SDS011;11650;48.106;-1.696;2023-06-10T04:48:22;35.97;;;23.47;;
22967;SDS011;11650;48.106;-1.696;2023-06-10T04:50:49;34.53;;;23.57;;
22967;SDS011;11650;48.106;-1.696;2023-06-10T04:53:15;33.83;;;22.27;;
22967;SDS011;11650;48.106;-1.696;2023-06-10T04:55:41;37.60;;;22.70;;
22967;SDS011;11650;48.106;-1.696;2023-06-10T04:58:07;32.67;;;22.63;;
22967;SDS011;11650;48.106;-1.696;2023-06-10T05:00:33;31.83;;;21.73;;
22967;SDS011;11650;48.106;-1.696;2023-06-10T05:02:58;32.63;;;23.30;;
22967;SDS011;11650;48.106;-1.696;2023-06-10T05:05:24;35.77;;;23.43;;
22967;SDS011;11650;48.106;-1.696;2023-06-10T05:07:50;35.80;;;23.17;;
22967;SDS011;11650;48.106;-1.696;2023-06-10T05:10:15;30.70;;;22.10;;
22967;SDS011;11650;48.106;-1.696;2023-06-10T05:12:41;37.20;;;23.03;;
22967;SDS011;11650;48.106;-1.696;2023-06-10T05:15:07;36.27;;;22.63;;
22967;SDS011;11650;48.106;-1.696;2023-06-10T05:17:33;34.77;;;23.87;;
22967;SDS011;11650;48.106;-1.696;2023-06-10T05:20:02;31.73;;;22.37;;
22967;SDS011;11650;48.106;-1.696;2023-06-10T05:22:28;34.53;;;22.73;;
22967;SDS011;11650;48.106;-1.696;2023-06-10T05:24:54;38.53;;;25.03;;
22967;SDS011;11650;48.106;-1.696;2023-06-10T05:27:19;35.83;;;24.07;;
22967;SDS011;11650;48.106;-1.696;2023-06-10T05:29:46;34.07;;;23.67;;
22967;SDS011;11650;48.106;-1.696;2023-06-10T05:32:11;33.23;;;22.47;;
22967;SDS011;11650;48.106;-1.696;2023-06-10T05:34:37;36.10;;;23.40;;
22967;SDS011;11650;48.106;-1.696;2023-06-10T05:37:03;35.00;;;23.57;;
22967;SDS011;11650;48.106;-1.696;2023-06-10T05:39:29;33.77;;;22.87;;
22967;SDS011;11650;48.106;-1.696;2023-06-10T05:41:55;30.83;;;22.60;;
22967;SDS011;11650;48.106;-1.696;2023-06-10T05:44:21;33.57;;;22.57;;
22967;SDS011;11650;48.106;-1.696;2023-06-10T05:46:47;36.37;;;23.73;;
22967;SDS011;11650;48.106;-1.696;2023-06-10T05:49:12;40.47;;;24.37;;
22967;SDS011;11650;48.106;-1.696;2023-06-10T05:51:38;34.67;;;23.37;;
22967;SDS011;11650;48.106;-1.696;2023-06-10T05:54:03;30.83;;;22.37;;
22967;SDS011;11650;48.106;-1.696;2023-06-10T05:56:29;29.23;;;22.07;;
22967;SDS011;11650;48.106;-1.696;2023-06-10T05:58:55;37.53;;;23.43;;
22967;SDS011;11650;48.106;-1.696;2023-06-10T06:01:21;37.77;;;23.70;;
22967;SDS011;11650;48.106;-1.696;2023-06-10T06:03:46;35.83;;;23.47;;
22967;SDS011;11650;48.106;-1.696;2023-06-10T06:06:12;36.77;;;24.50;;
22967;SDS011;11650;48.106;-1.696;2023-06-10T06:08:38;33.73;;;23.50;;
22967;SDS011;11650;48.106;-1.696;2023-06-10T06:11:03;35.43;;;24.27;;
22967;SDS011;11650;48.106;-1.696;2023-06-10T06:13:29;35.43;;;25.00;;
22967;SDS011;11650;48.106;-1.696;2023-06-10T06:15:55;38.73;;;24.63;;
22967;SDS011;11650;48.106;-1.696;2023-06-10T06:18:20;40.30;;;26.23;;
22967;SDS011;11650;48.106;-1.696;2023-06-10T06:20:46;38.20;;;25.43;;
22967;SDS011;11650;48.106;-1.696;2023-06-10T06:23:11;37.50;;;25.17;;
22967;SDS011;11650;48.106;-1.696;2023-06-10T06:25:37;34.60;;;25.20;;
22967;SDS011;11650;48.106;-1.696;2023-06-10T06:28:05;38.27;;;25.73;;
22967;SDS011;11650;48.106;-1.696;2023-06-10T06:30:32;41.03;;;26.33;;
22967;SDS011;11650;48.106;-1.696;2023-06-10T06:32:57;40.57;;;25.40;;
22967;SDS011;11650;48.106;-1.696;2023-06-10T06:35:24;38.27;;;25.90;;
22967;SDS011;11650;48.106;-1.696;2023-06-10T06:37:49;38.67;;;25.50;;
22967;SDS011;11650;48.106;-1.696;2023-06-10T06:40:15;40.27;;;26.07;;
22967;SDS011;11650;48.106;-1.696;2023-06-10T06:42:40;34.87;;;24.23;;
22967;SDS011;11650;48.106;-1.696;2023-06-10T06:45:06;36.10;;;25.50;;
22967;SDS011;11650;48.106;-1.696;2023-06-10T06:47:32;38.87;;;24.87;;
22967;SDS011;11650;48.106;-1.696;2023-06-10T06:49:58;37.30;;;25.30;;
22967;SDS011;11650;48.106;-1.696;2023-06-10T06:52:23;33.37;;;24.37;;
22967;SDS011;11650;48.106;-1.696;2023-06-10T06:54:49;37.97;;;25.83;;
22967;SDS011;11650;48.106;-1.696;2023-06-10T06:57:14;41.27;;;25.90;;
22967;SDS011;11650;48.106;-1.696;2023-06-10T06:59:40;37.37;;;26.00;;
22967;SDS011;11650;48.106;-1.696;2023-06-10T07:02:06;38.63;;;25.50;;
22967;SDS011;11650;48.106;-1.696;2023-06-10T07:04:31;40.57;;;24.90;;
22967;SDS011;11650;48.106;-1.696;2023-06-10T07:06:57;38.20;;;26.23;;
22967;SDS011;11650;48.106;-1.696;2023-06-10T07:09:23;36.83;;;25.93;;
22967;SDS011;11650;48.106;-1.696;2023-06-10T07:11:48;35.57;;;24.97;;
22967;SDS011;11650;48.106;-1.696;2023-06-10T07:14:14;38.67;;;24.87;;
22967;SDS011;11650;48.106;-1.696;2023-06-10T07:16:40;34.27;;;24.10;;
22967;SDS011;11650;48.106;-1.696;2023-06-10T07:19:05;35.27;;;24.23;;
22967;SDS011;11650;48.106;-1.696;2023-06-10T07:21:31;34.93;;;23.93;;
22967;SDS011;11650;48.106;-1.696;2023-06-10T07:23:57;36.07;;;24.23;;
22967;SDS011;11650;48.106;-1.696;2023-06-10T07:26:23;34.40;;;23.87;;
22967;SDS011;11650;48.106;-1.696;2023-06-10T07:28:49;34.33;;;24.17;;
22967;SDS011;11650;48.106;-1.696;2023-06-10T07:31:14;31.43;;;24.23;;
22967;SDS011;11650;48.106;-1.696;2023-06-10T07:33:41;33.87;;;22.70;;
22967;SDS011;11650;48.106;-1.696;2023-06-10T07:36:08;31.93;;;22.80;;
22967;SDS011;11650;48.106;-1.696;2023-06-10T07:38:34;33.60;;;22.43;;
22967;SDS011;11650;48.106;-1.696;2023-06-10T07:41:00;36.10;;;22.70;;
22967;SDS011;11650;48.106;-1.696;2023-06-10T07:43:26;32.77;;;20.87;;
22967;SDS011;11650;48.106;-1.696;2023-06-10T07:45:51;28.07;;;21.27;;
22967;SDS011;11650;48.106;-1.696;2023-06-10T07:48:17;32.93;;;21.50;;
22967;SDS011;11650;48.106;-1.696;2023-06-10T07:50:43;31.00;;;21.37;;
22967;SDS011;11650;48.106;-1.696;2023-06-10T07:53:09;27.77;;;20.77;;
22967;SDS011;11650;48.106;-1.696;2023-06-10T07:55:35;31.20;;;20.70;;
22967;SDS011;11650;48.106;-1.696;2023-06-10T07:58:00;28.00;;;20.30;;
22967;SDS011;11650;48.106;-1.696;2023-06-10T08:00:26;29.50;;;20.43;;
22967;SDS011;11650;48.106;-1.696;2023-06-10T08:02:52;27.60;;;20.57;;
22967;SDS011;11650;48.106;-1.696;2023-06-10T08:05:17;28.67;;;20.87;;
22967;SDS011;11650;48.106;-1.696;2023-06-10T08:07:44;24.70;;;19.47;;
22967;SDS011;11650;48.106;-1.696;2023-06-10T08:10:10;28.53;;;20.50;;
22967;SDS011;11650;48.106;-1.696;2023-06-10T08:12:36;24.93;;;20.27;;
22967;SDS011;11650;48.106;-1.696;2023-06-10T08:15:01;27.63;;;21.30;;
22967;SDS011;11650;48.106;-1.696;2023-06-10T08:17:29;31.47;;;21.13;;
22967;SDS011;11650;48.106;-1.696;2023-06-10T08:19:55;31.07;;;20.37;;
22967;SDS011;11650;48.106;-1.696;2023-06-10T08:22:21;26.53;;;19.53;;
22967;SDS011;11650;48.106;-1.696;2023-06-10T08:24:47;24.40;;;19.53;;
22967;SDS011;11650;48.106;-1.696;2023-06-10T08:27:12;26.70;;;19.17;;
22967;SDS011;11650;48.106;-1.696;2023-06-10T08:29:38;24.63;;;19.13;;
22967;SDS011;11650;48.106;-1.696;2023-06-10T08:32:04;25.47;;;19.97;;
22967;SDS011;11650;48.106;-1.696;2023-06-10T08:34:33;26.90;;;19.70;;
22967;SDS011;11650;48.106;-1.696;2023-06-10T08:37:00;26.33;;;18.57;;
22967;SDS011;11650;48.106;-1.696;2023-06-10T08:39:26;24.07;;;18.60;;
22967;SDS011;11650;48.106;-1.696;2023-06-10T08:42:09;22.60;;;18.47;;
22967;SDS011;11650;48.106;-1.696;2023-06-10T08:44:42;26.37;;;19.50;;
22967;SDS011;11650;48.106;-1.696;2023-06-10T08:47:14;25.00;;;18.33;;
22967;SDS011;11650;48.106;-1.696;2023-06-10T08:49:44;24.90;;;18.57;;
22967;SDS011;11650;48.106;-1.696;2023-06-10T08:52:18;20.53;;;17.03;;
22967;SDS011;11650;48.106;-1.696;2023-06-10T08:55:31;21.03;;;18.10;;
22967;SDS011;11650;48.106;-1.696;2023-06-10T08:57:33;26.13;;;18.00;;
22967;SDS011;11650;48.106;-1.696;2023-06-10T09:00:00;23.80;;;17.40;;
22967;SDS011;11650;48.106;-1.696;2023-06-10T09:02:27;21.43;;;17.57;;
22967;SDS011;11650;48.106;-1.696;2023-06-10T09:04:53;23.07;;;17.63;;
22967;SDS011;11650;48.106;-1.696;2023-06-10T09:07:21;24.57;;;17.53;;
22967;SDS011;11650;48.106;-1.696;2023-06-10T09:09:48;21.17;;;16.37;;
22967;SDS011;11650;48.106;-1.696;2023-06-10T09:12:14;20.83;;;16.97;;
22967;SDS011;11650;48.106;-1.696;2023-06-10T09:14:43;22.43;;;17.00;;
22967;SDS011;11650;48.106;-1.696;2023-06-10T09:17:09;19.60;;;17.50;;
22967;SDS011;11650;48.106;-1.696;2023-06-10T09:19:35;19.57;;;16.83;;
22967;SDS011;11650;48.106;-1.696;2023-06-10T09:22:01;21.97;;;16.83;;
22967;SDS011;11650;48.106;-1.696;2023-06-10T09:24:27;23.50;;;16.90;;
22967;SDS011;11650;48.106;-1.696;2023-06-10T09:27:03;18.07;;;16.00;;
22967;SDS011;11650;48.106;-1.696;2023-06-10T09:29:31;20.17;;;16.57;;
22967;SDS011;11650;48.106;-1.696;2023-06-10T09:32:09;20.47;;;16.63;;
22967;SDS011;11650;48.106;-1.696;2023-06-10T09:34:35;22.33;;;17.17;;
22967;SDS011;11650;48.106;-1.696;2023-06-10T09:37:01;21.07;;;16.30;;
22967;SDS011;11650;48.106;-1.696;2023-06-10T09:39:27;18.70;;;16.43;;
22967;SDS011;11650;48.106;-1.696;2023-06-10T09:41:53;19.67;;;15.70;;
22967;SDS011;11650;48.106;-1.696;2023-06-10T09:44:19;18.13;;;16.23;;
22967;SDS011;11650;48.106;-1.696;2023-06-10T09:46:46;20.67;;;16.90;;
22967;SDS011;11650;48.106;-1.696;2023-06-10T09:49:13;20.47;;;17.20;;
22967;SDS011;11650;48.106;-1.696;2023-06-10T09:52:00;25.27;;;17.17;;
22967;SDS011;11650;48.106;-1.696;2023-06-10T09:54:24;18.63;;;16.23;;
22967;SDS011;11650;48.106;-1.696;2023-06-10T09:56:57;17.83;;;15.47;;
22967;SDS011;11650;48.106;-1.696;2023-06-10T09:59:28;19.53;;;16.10;;
22967;SDS011;11650;48.106;-1.696;2023-06-10T10:01:55;17.90;;;16.00;;
22967;SDS011;11650;48.106;-1.696;2023-06-10T10:04:24;18.23;;;15.93;;
22967;SDS011;11650;48.106;-1.696;2023-06-10T10:06:50;17.27;;;14.33;;
22967;SDS011;11650;48.106;-1.696;2023-06-10T10:09:16;19.40;;;15.50;;
22967;SDS011;11650;48.106;-1.696;2023-06-10T10:11:42;16.67;;;14.87;;
22967;SDS011;11650;48.106;-1.696;2023-06-10T10:14:09;18.30;;;15.03;;
22967;SDS011;11650;48.106;-1.696;2023-06-10T10:16:36;20.47;;;14.77;;
22967;SDS011;11650;48.106;-1.696;2023-06-10T10:19:40;16.07;;;14.37;;
22967;SDS011;11650;48.106;-1.696;2023-06-10T10:22:01;18.57;;;15.10;;
22967;SDS011;11650;48.106;-1.696;2023-06-10T10:24:35;16.77;;;15.07;;
22967;SDS011;11650;48.106;-1.696;2023-06-10T10:27:05;16.43;;;14.70;;
22967;SDS011;11650;48.106;-1.696;2023-06-10T10:29:38;16.70;;;14.90;;
22967;SDS011;11650;48.106;-1.696;2023-06-10T10:32:04;15.93;;;14.10;;
22967;SDS011;11650;48.106;-1.696;2023-06-10T10:37:25;21.17;;;14.63;;
22967;SDS011;11650;48.106;-1.696;2023-06-10T10:39:51;19.43;;;15.63;;
22967;SDS011;11650;48.106;-1.696;2023-06-10T10:42:17;18.97;;;16.10;;
22967;SDS011;11650;48.106;-1.696;2023-06-10T10:44:43;18.00;;;16.03;;
22967;SDS011;11650;48.106;-1.696;2023-06-10T10:47:09;23.57;;;18.80;;
22967;SDS011;11650;48.106;-1.696;2023-06-10T10:49:36;23.57;;;19.97;;
22967;SDS011;11650;48.106;-1.696;2023-06-10T10:52:03;25.80;;;19.33;;
22967;SDS011;11650;48.106;-1.696;2023-06-10T10:54:32;22.70;;;19.23;;
22967;SDS011;11650;48.106;-1.696;2023-06-10T10:57:09;21.23;;;17.60;;
22967;SDS011;11650;48.106;-1.696;2023-06-10T11:02:36;23.20;;;20.10;;
22967;SDS011;11650;48.106;-1.696;2023-06-10T11:05:08;27.33;;;20.07;;
22967;SDS011;11650;48.106;-1.696;2023-06-10T11:07:34;23.17;;;20.13;;
22967;SDS011;11650;48.106;-1.696;2023-06-10T11:10:11;26.53;;;20.53;;
22967;SDS011;11650;48.106;-1.696;2023-06-10T11:15:22;19.70;;;17.60;;
22967;SDS011;11650;48.106;-1.696;2023-06-10T11:18:08;20.87;;;17.83;;
22967;SDS011;11650;48.106;-1.696;2023-06-10T11:26:16;20.77;;;18.53;;
22967;SDS011;11650;48.106;-1.696;2023-06-10T11:34:07;18.57;;;14.30;;
22967;SDS011;11650;48.106;-1.696;2023-06-10T11:36:34;17.70;;;14.43;;
22967;SDS011;11650;48.106;-1.696;2023-06-10T11:39:05;17.03;;;14.27;;
22967;SDS011;11650;48.106;-1.696;2023-06-10T11:41:32;18.40;;;14.27;;
22967;SDS011;11650;48.106;-1.696;2023-06-10T11:46:38;15.83;;;13.33;;
22967;SDS011;11650;48.106;-1.696;2023-06-10T11:49:04;14.43;;;12.17;;
22967;SDS011;11650;48.106;-1.696;2023-06-10T11:51:37;15.03;;;11.80;;
22967;SDS011;11650;48.106;-1.696;2023-06-10T11:54:05;15.97;;;13.03;;
22967;SDS011;11650;48.106;-1.696;2023-06-10T11:56:33;13.43;;;12.00;;
22967;SDS011;11650;48.106;-1.696;2023-06-10T11:58:59;13.95;;;12.18;;
22967;SDS011;11650;48.106;-1.696;2023-06-10T12:01:35;14.63;;;11.97;;
22967;SDS011;11650;48.106;-1.696;2023-06-10T12:04:03;16.05;;;13.27;;
22967;SDS011;11650;48.106;-1.696;2023-06-10T12:11:49;14.70;;;12.10;;
22967;SDS011;11650;48.106;-1.696;2023-06-10T12:14:49;11.70;;;10.48;;
22967;SDS011;11650;48.106;-1.696;2023-06-10T12:17:22;11.73;;;10.60;;
22967;SDS011;11650;48.106;-1.696;2023-06-10T12:20:02;11.43;;;9.10;;
22967;SDS011;11650;48.106;-1.696;2023-06-10T12:22:39;11.68;;;10.30;;
22967;SDS011;11650;48.106;-1.696;2023-06-10T12:25:06;11.77;;;10.52;;
22967;SDS011;11650;48.106;-1.696;2023-06-10T12:27:33;11.93;;;9.90;;
22967;SDS011;11650;48.106;-1.696;2023-06-10T12:29:59;14.10;;;11.25;;
22967;SDS011;11650;48.106;-1.696;2023-06-10T12:32:35;11.55;;;9.80;;
22967;SDS011;11650;48.106;-1.696;2023-06-10T12:35:02;8.82;;;7.93;;
22967;SDS011;11650;48.106;-1.696;2023-06-10T12:37:31;9.40;;;8.43;;
22967;SDS011;11650;48.106;-1.696;2023-06-10T12:39:59;9.55;;;8.52;;
22967;SDS011;11650;48.106;-1.696;2023-06-10T12:42:27;18.45;;;11.85;;
22967;SDS011;11650;48.106;-1.696;2023-06-10T12:44:53;14.43;;;12.05;;
22967;SDS011;11650;48.106;-1.696;2023-06-10T12:47:20;13.70;;;12.32;;
22967;SDS011;11650;48.106;-1.696;2023-06-10T12:49:53;13.25;;;11.63;;
22967;SDS011;11650;48.106;-1.696;2023-06-10T12:52:19;14.13;;;11.55;;
22967;SDS011;11650;48.106;-1.696;2023-06-10T12:54:45;14.68;;;12.43;;
22967;SDS011;11650;48.106;-1.696;2023-06-10T12:57:10;17.05;;;12.45;;
22967;SDS011;11650;48.106;-1.696;2023-06-10T12:59:36;13.90;;;12.38;;
22967;SDS011;11650;48.106;-1.696;2023-06-10T13:02:02;14.82;;;11.70;;
22967;SDS011;11650;48.106;-1.696;2023-06-10T13:04:28;13.43;;;10.23;;
22967;SDS011;11650;48.106;-1.696;2023-06-10T13:06:53;13.35;;;11.40;;
22967;SDS011;11650;48.106;-1.696;2023-06-10T13:09:19;11.80;;;10.27;;
22967;SDS011;11650;48.106;-1.696;2023-06-10T13:11:45;13.77;;;10.77;;
22967;SDS011;11650;48.106;-1.696;2023-06-10T13:14:10;11.07;;;9.23;;
22967;SDS011;11650;48.106;-1.696;2023-06-10T13:16:36;8.85;;;7.95;;
22967;SDS011;11650;48.106;-1.696;2023-06-10T13:19:03;8.82;;;7.22;;
22967;SDS011;11650;48.106;-1.696;2023-06-10T13:21:30;9.25;;;7.22;;
22967;SDS011;11650;48.106;-1.696;2023-06-10T13:23:57;8.35;;;7.00;;
22967;SDS011;11650;48.106;-1.696;2023-06-10T13:26:22;8.60;;;6.93;;
22967;SDS011;11650;48.106;-1.696;2023-06-10T13:28:49;9.93;;;7.10;;
22967;SDS011;11650;48.106;-1.696;2023-06-10T13:31:14;11.07;;;7.37;;
22967;SDS011;11650;48.106;-1.696;2023-06-10T13:33:40;10.20;;;7.27;;
22967;SDS011;11650;48.106;-1.696;2023-06-10T13:36:08;8.10;;;6.50;;
22967;SDS011;11650;48.106;-1.696;2023-06-10T13:38:34;6.60;;;5.90;;
22967;SDS011;11650;48.106;-1.696;2023-06-10T13:40:59;6.80;;;6.10;;
22967;SDS011;11650;48.106;-1.696;2023-06-10T13:43:26;6.97;;;6.27;;
22967;SDS011;11650;48.106;-1.696;2023-06-10T13:45:51;6.20;;;5.60;;
22967;SDS011;11650;48.106;-1.696;2023-06-10T13:48:17;8.80;;;7.73;;
22967;SDS011;11650;48.106;-1.696;2023-06-10T13:50:43;9.93;;;7.83;;
22967;SDS011;11650;48.106;-1.696;2023-06-10T13:53:10;9.27;;;7.90;;
22967;SDS011;11650;48.106;-1.696;2023-06-10T13:55:36;8.80;;;8.00;;
22967;SDS011;11650;48.106;-1.696;2023-06-10T13:58:02;8.80;;;7.87;;
22967;SDS011;11650;48.106;-1.696;2023-06-10T14:00:28;9.17;;;7.97;;
22967;SDS011;11650;48.106;-1.696;2023-06-10T14:02:53;10.67;;;8.90;;
22967;SDS011;11650;48.106;-1.696;2023-06-10T14:05:19;10.38;;;8.57;;
22967;SDS011;11650;48.106;-1.696;2023-06-10T14:07:45;11.13;;;8.60;;
22967;SDS011;11650;48.106;-1.696;2023-06-10T14:10:11;8.68;;;7.72;;
22967;SDS011;11650;48.106;-1.696;2023-06-10T14:12:36;8.82;;;7.93;;
22967;SDS011;11650;48.106;-1.696;2023-06-10T14:15:02;8.63;;;7.78;;
22967;SDS011;11650;48.106;-1.696;2023-06-10T14:17:28;10.80;;;7.50;;
22967;SDS011;11650;48.106;-1.696;2023-06-10T14:19:53;8.07;;;7.10;;
22967;SDS011;11650;48.106;-1.696;2023-06-10T14:22:19;9.10;;;7.90;;
22967;SDS011;11650;48.106;-1.696;2023-06-10T14:24:44;10.00;;;7.50;;
22967;SDS011;11650;48.106;-1.696;2023-06-10T14:27:12;8.48;;;7.63;;
22967;SDS011;11650;48.106;-1.696;2023-06-10T14:29:37;8.73;;;7.93;;
22967;SDS011;11650;48.106;-1.696;2023-06-10T14:32:03;8.00;;;7.18;;
22967;SDS011;11650;48.106;-1.696;2023-06-10T14:34:29;8.18;;;7.30;;
22967;SDS011;11650;48.106;-1.696;2023-06-10T14:36:58;8.38;;;6.65;;
22967;SDS011;11650;48.106;-1.696;2023-06-10T14:39:24;7.15;;;6.18;;
22967;SDS011;11650;48.106;-1.696;2023-06-10T14:41:50;8.68;;;7.38;;
22967;SDS011;11650;48.106;-1.696;2023-06-10T14:44:17;7.43;;;6.70;;
22967;SDS011;11650;48.106;-1.696;2023-06-10T14:46:43;7.53;;;6.82;;